sensor_id;sensor_type;location;lat;lon;timestamp;pressure;altitude;pressure_sealevel;temperature;humidity
9905;BME280;4991;43.566;27.820;2023-07-16T00:00:15;99126.25;;;20.75;100.00
9905;BME280;4991;43.566;27.820;2023-07-16T00:02:43;99133.34;;;20.72;100.00
9905;BME280;4991;43.566;27.820;2023-07-16T00:05:09;99123.00;;;20.69;100.00
9905;BME280;4991;43.566;27.820;2023-07-16T00:07:34;99121.09;;;20.73;100.00
9905;BME280;4991;43.566;27.820;2023-07-16T00:10:00;99124.13;;;20.68;100.00
9905;BME280;4991;43.566;27.820;2023-07-16T00:12:26;99121.28;;;20.65;100.00
9905;BME280;4991;43.566;27.820;2023-07-16T00:14:51;99117.75;;;20.64;100.00
9905;BME280;4991;43.566;27.820;2023-07-16T00:17:17;99123.78;;;20.70;100.00
9905;BME280;4991;43.566;27.820;2023-07-16T00:19:42;99119.13;;;20.74;100.00
9905;BME280;4991;43.566;27.820;2023-07-16T00:22:08;99116.72;;;20.72;100.00
9905;BME280;4991;43.566;27.820;2023-07-16T00:24:34;99116.81;;;20.76;100.00
9905;BME280;4991;43.566;27.820;2023-07-16T00:26:59;99114.41;;;20.74;100.00
9905;BME280;4991;43.566;27.820;2023-07-16T00:29:25;99114.25;;;20.67;100.00
9905;BME280;4991;43.566;27.820;2023-07-16T00:31:51;99109.44;;;20.64;100.00
9905;BME280;4991;43.566;27.820;2023-07-16T00:34:16;99113.88;;;20.69;100.00
9905;BME280;4991;43.566;27.820;2023-07-16T00:36:42;99106.38;;;20.69;100.00
9905;BME280;4991;43.566;27.820;2023-07-16T00:39:07;99098.50;;;20.52;100.00
9905;BME280;4991;43.566;27.820;2023-07-16T00:41:34;99094.47;;;20.49;100.00
9905;BME280;4991;43.566;27.820;2023-07-16T00:44:00;99096.91;;;20.51;100.00
9905;BME280;4991;43.566;27.820;2023-07-16T00:46:25;99087.78;;;20.50;100.00
9905;BME280;4991;43.566;27.820;2023-07-16T00:48:51;99091.78;;;20.53;100.00
9905;BME280;4991;43.566;27.820;2023-07-16T00:51:18;99099.06;;;20.61;100.00
9905;BME280;4991;43.566;27.820;2023-07-16T00:53:44;99090.84;;;20.65;100.00
9905;BME280;4991;43.566;27.820;2023-07-16T00:56:11;99085.69;;;20.63;100.00
9905;BME280;4991;43.566;27.820;2023-07-16T00:58:38;99085.97;;;20.58;100.00
9905;BME280;4991;43.566;27.820;2023-07-16T01:01:04;99080.34;;;20.54;100.00
9905;BME280;4991;43.566;27.820;2023-07-16T01:03:29;99078.16;;;20.44;100.00
9905;BME280;4991;43.566;27.820;2023-07-16T01:11:06;99076.81;;;20.54;100.00
9905;BME280;4991;43.566;27.820;2023-07-16T01:13:32;99072.03;;;20.54;100.00
9905;BME280;4991;43.566;27.820;2023-07-16T01:15:58;99073.50;;;20.48;100.00
9905;BME280;4991;43.566;27.820;2023-07-16T01:18:23;99067.97;;;20.48;100.00
9905;BME280;4991;43.566;27.820;2023-07-16T01:20:49;99073.72;;;20.40;100.00
9905;BME280;4991;43.566;27.820;2023-07-16T01:23:26;99069.28;;;20.35;100.00
9905;BME280;4991;43.566;27.820;2023-07-16T01:28:47;99067.16;;;20.29;100.00
9905;BME280;4991;43.566;27.820;2023-07-16T01:31:20;99065.47;;;20.24;100.00
9905;BME280;4991;43.566;27.820;2023-07-16T01:33:50;99064.22;;;20.22;100.00
9905;BME280;4991;43.566;27.820;2023-07-16T01:36:17;99059.13;;;20.24;100.00
9905;BME280;4991;43.566;27.820;2023-07-16T01:38:44;99059.03;;;20.20;100.00
9905;BME280;4991;43.566;27.820;2023-07-16T01:41:10;99060.91;;;20.16;100.00
9905;BME280;4991;43.566;27.820;2023-07-16T01:43:36;99058.22;;;20.20;100.00
9905;BME280;4991;43.566;27.820;2023-07-16T01:46:02;99057.88;;;20.21;100.00
9905;BME280;4991;43.566;27.820;2023-07-16T01:48:33;99058.06;;;20.13;100.00
9905;BME280;4991;43.566;27.820;2023-07-16T01:51:01;99060.84;;;20.13;100.00
9905;BME280;4991;43.566;27.820;2023-07-16T01:53:27;99057.25;;;20.12;100.00
9905;BME280;4991;43.566;27.820;2023-07-16T01:55:52;99061.16;;;20.11;100.00
9905;BME280;4991;43.566;27.820;2023-07-16T01:58:19;99062.78;;;20.12;100.00
9905;BME280;4991;43.566;27.820;2023-07-16T02:00:45;99060.38;;;20.11;100.00
9905;BME280;4991;43.566;27.820;2023-07-16T02:03:11;99057.16;;;20.09;100.00
9905;BME280;4991;43.566;27.820;2023-07-16T02:05:37;99060.75;;;20.09;100.00
9905;BME280;4991;43.566;27.820;2023-07-16T02:08:02;99064.66;;;20.08;100.00
9905;BME280;4991;43.566;27.820;2023-07-16T02:10:28;99068.69;;;20.11;100.00
9905;BME280;4991;43.566;27.820;2023-07-16T02:12:54;99061.72;;;20.17;100.00
9905;BME280;4991;43.566;27.820;2023-07-16T02:15:19;99069.38;;;20.23;100.00
9905;BME280;4991;43.566;27.820;2023-07-16T02:17:47;99071.41;;;20.26;100.00
9905;BME280;4991;43.566;27.820;2023-07-16T02:20:13;99071.78;;;20.25;100.00
9905;BME280;4991;43.566;27.820;2023-07-16T02:22:39;99065.03;;;20.22;100.00
9905;BME280;4991;43.566;27.820;2023-07-16T02:25:05;99071.72;;;20.06;100.00
9905;BME280;4991;43.566;27.820;2023-07-16T02:27:31;99071.34;;;20.07;100.00
9905;BME280;4991;43.566;27.820;2023-07-16T02:29:57;99070.00;;;20.01;100.00
9905;BME280;4991;43.566;27.820;2023-07-16T02:32:23;99069.50;;;19.96;100.00
9905;BME280;4991;43.566;27.820;2023-07-16T02:34:48;99074.13;;;19.92;100.00
9905;BME280;4991;43.566;27.820;2023-07-16T02:37:14;99074.03;;;20.04;100.00
9905;BME280;4991;43.566;27.820;2023-07-16T02:39:41;99077.25;;;20.06;100.00
9905;BME280;4991;43.566;27.820;2023-07-16T02:42:07;99077.69;;;20.08;100.00
9905;BME280;4991;43.566;27.820;2023-07-16T02:44:32;99077.34;;;19.94;100.00
9905;BME280;4991;43.566;27.820;2023-07-16T02:46:58;99076.38;;;19.86;100.00
9905;BME280;4991;43.566;27.820;2023-07-16T02:49:24;99077.88;;;19.84;100.00
9905;BME280;4991;43.566;27.820;2023-07-16T02:51:49;99071.38;;;19.92;100.00
9905;BME280;4991;43.566;27.820;2023-07-16T02:54:15;99070.00;;;20.01;100.00
9905;BME280;4991;43.566;27.820;2023-07-16T02:56:40;99073.59;;;20.02;100.00
9905;BME280;4991;43.566;27.820;2023-07-16T02:59:06;99082.06;;;20.09;100.00
9905;BME280;4991;43.566;27.820;2023-07-16T03:01:32;99077.97;;;20.03;100.00
9905;BME280;4991;43.566;27.820;2023-07-16T03:03:57;99063.34;;;19.87;100.00
9905;BME280;4991;43.566;27.820;2023-07-16T03:06:23;99067.72;;;19.88;100.00
9905;BME280;4991;43.566;27.820;2023-07-16T03:08:50;99073.84;;;19.97;100.00
9905;BME280;4991;43.566;27.820;2023-07-16T03:11:17;99076.03;;;19.88;100.00
9905;BME280;4991;43.566;27.820;2023-07-16T03:13:42;99068.50;;;19.88;100.00
9905;BME280;4991;43.566;27.820;2023-07-16T03:16:08;99072.53;;;19.91;100.00
9905;BME280;4991;43.566;27.820;2023-07-16T03:18:33;99077.63;;;19.89;100.00
9905;BME280;4991;43.566;27.820;2023-07-16T03:20:59;99072.53;;;19.91;100.00
9905;BME280;4991;43.566;27.820;2023-07-16T03:23:25;99075.47;;;19.98;100.00
9905;BME280;4991;43.566;27.820;2023-07-16T03:25:51;99071.81;;;20.09;100.00
9905;BME280;4991;43.566;27.820;2023-07-16T03:28:18;99076.59;;;20.28;100.00
9905;BME280;4991;43.566;27.820;2023-07-16T03:30:48;99078.16;;;20.44;100.00
9905;BME280;4991;43.566;27.820;2023-07-16T03:33:14;99080.00;;;20.56;100.00
9905;BME280;4991;43.566;27.820;2023-07-16T03:35:43;99086.25;;;20.53;100.00
9905;BME280;4991;43.566;27.820;2023-07-16T03:38:10;99075.06;;;20.65;100.00
9905;BME280;4991;43.566;27.820;2023-07-16T03:40:36;99072.06;;;20.74;100.00
9905;BME280;4991;43.566;27.820;2023-07-16T03:43:01;99077.75;;;20.62;100.00
9905;BME280;4991;43.566;27.820;2023-07-16T03:45:27;99074.16;;;20.61;100.00
9905;BME280;4991;43.566;27.820;2023-07-16T03:47:52;99069.22;;;20.70;100.00
9905;BME280;4991;43.566;27.820;2023-07-16T03:50:18;99070.91;;;20.75;100.00
9905;BME280;4991;43.566;27.820;2023-07-16T03:52:44;99071.84;;;20.82;100.00
9905;BME280;4991;43.566;27.820;2023-07-16T03:55:10;99073.66;;;20.75;100.00
9905;BME280;4991;43.566;27.820;2023-07-16T03:57:36;99078.53;;;20.81;100.00
9905;BME280;4991;43.566;27.820;2023-07-16T04:00:03;99080.81;;;20.95;100.00
9905;BME280;4991;43.566;27.820;2023-07-16T04:02:31;99079.81;;;21.03;100.00
9905;BME280;4991;43.566;27.820;2023-07-16T04:04:56;99082.78;;;21.13;100.00
9905;BME280;4991;43.566;27.820;2023-07-16T04:07:22;99086.00;;;21.15;100.00
9905;BME280;4991;43.566;27.820;2023-07-16T04:09:48;99087.31;;;21.21;100.00
9905;BME280;4991;43.566;27.820;2023-07-16T04:12:13;99089.03;;;21.29;100.00
9905;BME280;4991;43.566;27.820;2023-07-16T04:14:39;99087.00;;;21.26;100.00
9905;BME280;4991;43.566;27.820;2023-07-16T04:17:05;99088.47;;;21.20;100.00
9905;BME280;4991;43.566;27.820;2023-07-16T04:19:30;99086.94;;;21.23;100.00
9905;BME280;4991;43.566;27.820;2023-07-16T04:21:56;99085.03;;;21.27;100.00
9905;BME280;4991;43.566;27.820;2023-07-16T04:24:22;99088.88;;;21.41;100.00
9905;BME280;4991;43.566;27.820;2023-07-16T04:26:48;99095.28;;;21.45;100.00
9905;BME280;4991;43.566;27.820;2023-07-16T04:29:13;99088.06;;;21.41;100.00
9905;BME280;4991;43.566;27.820;2023-07-16T04:31:39;99089.00;;;21.48;100.00
9905;BME280;4991;43.566;27.820;2023-07-16T04:34:07;99092.69;;;21.56;100.00
9905;BME280;4991;43.566;27.820;2023-07-16T04:36:33;99096.41;;;21.63;100.00
9905;BME280;4991;43.566;27.820;2023-07-16T04:38:59;99093.44;;;21.75;100.00
9905;BME280;4991;43.566;27.820;2023-07-16T04:41:25;99087.59;;;21.81;100.00
9905;BME280;4991;43.566;27.820;2023-07-16T04:43:50;99094.94;;;21.92;100.00
9905;BME280;4991;43.566;27.820;2023-07-16T04:46:16;99095.00;;;21.96;100.00
9905;BME280;4991;43.566;27.820;2023-07-16T04:48:43;99092.41;;;22.06;100.00
9905;BME280;4991;43.566;27.820;2023-07-16T04:51:08;99090.06;;;22.08;100.00
9905;BME280;4991;43.566;27.820;2023-07-16T04:53:34;99091.06;;;22.23;100.00
9905;BME280;4991;43.566;27.820;2023-07-16T04:56:00;99091.97;;;22.30;100.00
9905;BME280;4991;43.566;27.820;2023-07-16T04:58:26;99097.72;;;22.44;100.00
9905;BME280;4991;43.566;27.820;2023-07-16T05:00:51;99093.22;;;22.59;100.00
9905;BME280;4991;43.566;27.820;2023-07-16T05:03:17;99097.34;;;22.72;100.00
9905;BME280;4991;43.566;27.820;2023-07-16T05:05:43;99112.25;;;22.86;100.00
9905;BME280;4991;43.566;27.820;2023-07-16T05:08:08;99102.00;;;22.94;100.00
9905;BME280;4991;43.566;27.820;2023-07-16T05:10:34;99106.91;;;23.04;100.00
9905;BME280;4991;43.566;27.820;2023-07-16T05:12:59;99114.56;;;23.14;100.00
9905;BME280;4991;43.566;27.820;2023-07-16T05:15:25;99102.69;;;23.17;100.00
9905;BME280;4991;43.566;27.820;2023-07-16T05:17:51;99105.97;;;23.26;100.00
9905;BME280;4991;43.566;27.820;2023-07-16T05:20:16;99101.31;;;23.34;100.00
9905;BME280;4991;43.566;27.820;2023-07-16T05:22:42;99101.44;;;23.44;100.00
9905;BME280;4991;43.566;27.820;2023-07-16T05:25:08;99103.09;;;23.52;100.00
9905;BME280;4991;43.566;27.820;2023-07-16T05:27:34;99105.53;;;23.57;100.00
9905;BME280;4991;43.566;27.820;2023-07-16T05:30:00;99105.66;;;23.68;100.00
9905;BME280;4991;43.566;27.820;2023-07-16T05:32:26;99108.06;;;23.73;100.00
9905;BME280;4991;43.566;27.820;2023-07-16T05:34:52;99107.34;;;23.79;100.00
9905;BME280;4991;43.566;27.820;2023-07-16T05:37:17;99106.66;;;23.93;100.00
9905;BME280;4991;43.566;27.820;2023-07-16T05:39:43;99115.13;;;24.03;100.00
9905;BME280;4991;43.566;27.820;2023-07-16T05:42:08;99106.50;;;24.15;100.00
9905;BME280;4991;43.566;27.820;2023-07-16T05:44:35;99120.06;;;24.20;100.00
9905;BME280;4991;43.566;27.820;2023-07-16T05:47:01;99120.88;;;24.28;100.00
9905;BME280;4991;43.566;27.820;2023-07-16T05:49:27;99123.34;;;24.37;100.00
9905;BME280;4991;43.566;27.820;2023-07-16T05:51:52;99119.81;;;24.47;100.00
9905;BME280;4991;43.566;27.820;2023-07-16T05:54:19;99110.38;;;24.62;100.00
9905;BME280;4991;43.566;27.820;2023-07-16T05:56:45;99109.66;;;24.72;100.00
9905;BME280;4991;43.566;27.820;2023-07-16T05:59:11;99112.91;;;24.84;100.00
9905;BME280;4991;43.566;27.820;2023-07-16T06:01:36;99113.00;;;24.98;100.00
9905;BME280;4991;43.566;27.820;2023-07-16T06:04:02;99115.81;;;25.09;100.00
9905;BME280;4991;43.566;27.820;2023-07-16T06:06:28;99113.03;;;25.16;100.00
9905;BME280;4991;43.566;27.820;2023-07-16T06:08:54;99113.09;;;25.30;100.00
9905;BME280;4991;43.566;27.820;2023-07-16T06:11:20;99110.34;;;25.37;100.00
9905;BME280;4991;43.566;27.820;2023-07-16T06:13:46;99113.56;;;25.46;100.00
9905;BME280;4991;43.566;27.820;2023-07-16T06:16:12;99102.84;;;25.55;100.00
9905;BME280;4991;43.566;27.820;2023-07-16T06:18:37;99104.03;;;25.61;100.00
9905;BME280;4991;43.566;27.820;2023-07-16T06:21:03;99097.28;;;25.69;100.00
9905;BME280;4991;43.566;27.820;2023-07-16T06:23:28;99101.28;;;25.79;100.00
9905;BME280;4991;43.566;27.820;2023-07-16T06:25:55;99100.47;;;25.85;100.00
9905;BME280;4991;43.566;27.820;2023-07-16T06:28:21;99100.09;;;25.94;100.00
9905;BME280;4991;43.566;27.820;2023-07-16T06:30:47;99106.13;;;26.03;100.00
9905;BME280;4991;43.566;27.820;2023-07-16T06:33:12;99104.50;;;26.12;100.00
9905;BME280;4991;43.566;27.820;2023-07-16T06:35:38;99100.09;;;26.18;100.00
9905;BME280;4991;43.566;27.820;2023-07-16T06:38:03;99102.13;;;26.25;100.00
9905;BME280;4991;43.566;27.820;2023-07-16T06:40:29;99104.50;;;26.26;100.00
9905;BME280;4991;43.566;27.820;2023-07-16T06:42:56;99096.91;;;26.34;100.00
9905;BME280;4991;43.566;27.820;2023-07-16T06:45:22;99106.06;;;26.52;100.00
9905;BME280;4991;43.566;27.820;2023-07-16T06:47:48;99103.66;;;26.61;100.00
9905;BME280;4991;43.566;27.820;2023-07-16T06:50:13;99108.44;;;26.64;100.00
9905;BME280;4991;43.566;27.820;2023-07-16T06:52:39;99100.06;;;26.75;100.00
9905;BME280;4991;43.566;27.820;2023-07-16T06:55:05;99106.03;;;26.77;100.00
9905;BME280;4991;43.566;27.820;2023-07-16T06:57:30;99102.44;;;26.80;100.00
9905;BME280;4991;43.566;27.820;2023-07-16T06:59:56;99110.00;;;26.86;100.00
9905;BME280;4991;43.566;27.820;2023-07-16T07:02:22;99111.16;;;26.92;100.00
9905;BME280;4991;43.566;27.820;2023-07-16T07:04:47;99115.94;;;26.99;100.00
9905;BME280;4991;43.566;27.820;2023-07-16T07:07:13;99111.09;;;27.06;100.00
9905;BME280;4991;43.566;27.820;2023-07-16T07:09:39;99110.66;;;27.15;100.00
9905;BME280;4991;43.566;27.820;2023-07-16T07:12:05;99110.66;;;27.22;100.00
9905;BME280;4991;43.566;27.820;2023-07-16T07:14:32;99106.25;;;27.28;100.00
9905;BME280;4991;43.566;27.820;2023-07-16T07:16:58;99118.19;;;27.35;100.00
9905;BME280;4991;43.566;27.820;2023-07-16T07:19:24;99118.53;;;27.48;100.00
9905;BME280;4991;43.566;27.820;2023-07-16T07:21:49;99121.25;;;27.62;100.00
9905;BME280;4991;43.566;27.820;2023-07-16T07:24:15;99125.59;;;27.70;100.00
9905;BME280;4991;43.566;27.820;2023-07-16T07:26:41;99123.16;;;27.79;100.00
9905;BME280;4991;43.566;27.820;2023-07-16T07:29:06;99119.09;;;27.83;100.00
9905;BME280;4991;43.566;27.820;2023-07-16T07:31:33;99113.47;;;27.87;100.00
9905;BME280;4991;43.566;27.820;2023-07-16T07:33:58;99113.06;;;27.88;100.00
9905;BME280;4991;43.566;27.820;2023-07-16T07:36:25;99111.88;;;27.89;100.00
9905;BME280;4991;43.566;27.820;2023-07-16T07:38:50;99118.69;;;27.92;100.00
9905;BME280;4991;43.566;27.820;2023-07-16T07:41:16;99114.69;;;27.89;100.00
9905;BME280;4991;43.566;27.820;2023-07-16T07:43:43;99119.09;;;27.91;100.00
9905;BME280;4991;43.566;27.820;2023-07-16T07:46:08;99118.56;;;28.03;100.00
9905;BME280;4991;43.566;27.820;2023-07-16T07:48:35;99116.94;;;28.12;100.00
9905;BME280;4991;43.566;27.820;2023-07-16T07:51:01;99118.84;;;28.22;100.00
9905;BME280;4991;43.566;27.820;2023-07-16T07:53:26;99126.75;;;28.31;100.00
9905;BME280;4991;43.566;27.820;2023-07-16T07:55:52;99116.66;;;28.40;100.00
9905;BME280;4991;43.566;27.820;2023-07-16T07:58:19;99121.00;;;28.52;100.00
9905;BME280;4991;43.566;27.820;2023-07-16T08:00:44;99121.28;;;28.61;100.00
9905;BME280;4991;43.566;27.820;2023-07-16T08:03:10;99126.41;;;28.69;100.00
9905;BME280;4991;43.566;27.820;2023-07-16T08:05:36;99130.75;;;28.74;100.00
9905;BME280;4991;43.566;27.820;2023-07-16T08:08:01;99127.13;;;28.77;100.00
9905;BME280;4991;43.566;27.820;2023-07-16T08:10:27;99123.03;;;28.85;100.00
9905;BME280;4991;43.566;27.820;2023-07-16T08:12:52;99130.56;;;28.91;100.00
9905;BME280;4991;43.566;27.820;2023-07-16T08:15:18;99133.31;;;28.98;100.00
9905;BME280;4991;43.566;27.820;2023-07-16T08:17:45;99132.03;;;29.03;100.00
9905;BME280;4991;43.566;27.820;2023-07-16T08:20:11;99126.41;;;29.06;100.00
9905;BME280;4991;43.566;27.820;2023-07-16T08:22:38;99124.78;;;29.05;100.00
9905;BME280;4991;43.566;27.820;2023-07-16T08:25:05;99130.31;;;29.16;100.00
9905;BME280;4991;43.566;27.820;2023-07-16T08:27:31;99128.91;;;29.31;100.00
9905;BME280;4991;43.566;27.820;2023-07-16T08:29:57;99123.31;;;29.31;100.00
9905;BME280;4991;43.566;27.820;2023-07-16T08:32:23;99122.03;;;29.36;100.00
9905;BME280;4991;43.566;27.820;2023-07-16T08:34:49;99131.94;;;29.44;100.00
9905;BME280;4991;43.566;27.820;2023-07-16T08:37:15;99126.25;;;29.51;100.00
9905;BME280;4991;43.566;27.820;2023-07-16T08:39:40;99120.19;;;29.52;100.00
9905;BME280;4991;43.566;27.820;2023-07-16T08:42:09;99127.28;;;29.60;100.00
9905;BME280;4991;43.566;27.820;2023-07-16T08:44:36;99118.22;;;29.79;100.00
9905;BME280;4991;43.566;27.820;2023-07-16T08:47:03;99120.50;;;29.88;100.00
9905;BME280;4991;43.566;27.820;2023-07-16T08:49:30;99111.78;;;30.05;100.00
9905;BME280;4991;43.566;27.820;2023-07-16T08:51:56;99111.13;;;29.98;100.00
9905;BME280;4991;43.566;27.820;2023-07-16T08:54:22;99114.56;;;30.09;100.00
9905;BME280;4991;43.566;27.820;2023-07-16T08:56:48;99111.47;;;30.26;100.00
9905;BME280;4991;43.566;27.820;2023-07-16T08:59:17;99109.94;;;30.45;100.00
9905;BME280;4991;43.566;27.820;2023-07-16T09:01:42;99107.59;;;30.63;100.00
9905;BME280;4991;43.566;27.820;2023-07-16T09:04:08;99112.06;;;30.84;100.00
9905;BME280;4991;43.566;27.820;2023-07-16T09:06:34;99110.91;;;31.01;100.00
9905;BME280;4991;43.566;27.820;2023-07-16T09:08:59;99109.53;;;31.09;100.00
9905;BME280;4991;43.566;27.820;2023-07-16T09:11:25;99114.66;;;31.33;100.00
9905;BME280;4991;43.566;27.820;2023-07-16T09:13:51;99104.09;;;31.37;100.00
9905;BME280;4991;43.566;27.820;2023-07-16T09:16:20;99102.03;;;31.41;100.00
9905;BME280;4991;43.566;27.820;2023-07-16T09:18:46;99104.44;;;31.59;100.00
9905;BME280;4991;43.566;27.820;2023-07-16T09:21:13;99104.13;;;31.73;100.00
9905;BME280;4991;43.566;27.820;2023-07-16T09:23:38;99101.91;;;31.81;100.00
9905;BME280;4991;43.566;27.820;2023-07-16T09:26:04;99098.72;;;31.63;100.00
9905;BME280;4991;43.566;27.820;2023-07-16T09:28:33;99105.59;;;31.78;100.00
9905;BME280;4991;43.566;27.820;2023-07-16T09:31:07;99099.63;;;31.76;100.00
9905;BME280;4991;43.566;27.820;2023-07-16T09:33:34;99100.78;;;31.78;100.00
9905;BME280;4991;43.566;27.820;2023-07-16T09:35:59;99093.44;;;31.65;100.00
9905;BME280;4991;43.566;27.820;2023-07-16T09:38:27;99091.22;;;31.92;100.00
9905;BME280;4991;43.566;27.820;2023-07-16T09:40:55;99106.53;;;31.91;100.00
9905;BME280;4991;43.566;27.820;2023-07-16T09:43:21;99104.50;;;32.07;100.00
9905;BME280;4991;43.566;27.820;2023-07-16T09:45:47;99101.59;;;32.11;100.00
9905;BME280;4991;43.566;27.820;2023-07-16T09:48:14;99103.38;;;32.21;100.00
9905;BME280;4991;43.566;27.820;2023-07-16T09:50:48;99096.97;;;32.81;100.00
9905;BME280;4991;43.566;27.820;2023-07-16T09:53:16;99088.53;;;34.60;100.00
9905;BME280;4991;43.566;27.820;2023-07-16T09:55:43;99091.84;;;36.06;99.92
9905;BME280;4991;43.566;27.820;2023-07-16T09:58:10;99092.28;;;38.09;83.71
9905;BME280;4991;43.566;27.820;2023-07-16T10:00:38;99097.63;;;38.72;74.29
9905;BME280;4991;43.566;27.820;2023-07-16T10:03:08;99089.47;;;39.33;71.57
9905;BME280;4991;43.566;27.820;2023-07-16T10:05:38;99093.44;;;40.14;66.15
9905;BME280;4991;43.566;27.820;2023-07-16T10:08:04;99095.31;;;41.68;63.88
9905;BME280;4991;43.566;27.820;2023-07-16T10:10:40;99097.81;;;41.86;56.28
9905;BME280;4991;43.566;27.820;2023-07-16T10:13:07;99093.69;;;41.93;55.72
9905;BME280;4991;43.566;27.820;2023-07-16T10:15:33;99091.47;;;42.08;51.65
9905;BME280;4991;43.566;27.820;2023-07-16T10:17:59;99093.84;;;41.78;50.54
9905;BME280;4991;43.566;27.820;2023-07-16T10:20:36;99087.47;;;42.84;48.55
9905;BME280;4991;43.566;27.820;2023-07-16T10:23:15;99094.72;;;41.90;49.27
9905;BME280;4991;43.566;27.820;2023-07-16T10:26:00;99097.03;;;42.65;48.14
9905;BME280;4991;43.566;27.820;2023-07-16T10:28:26;99098.88;;;44.04;44.99
9905;BME280;4991;43.566;27.820;2023-07-16T10:30:52;99093.88;;;44.32;43.62
9905;BME280;4991;43.566;27.820;2023-07-16T10:33:17;99095.13;;;42.51;42.71
9905;BME280;4991;43.566;27.820;2023-07-16T10:35:45;99091.78;;;41.79;44.81
9905;BME280;4991;43.566;27.820;2023-07-16T10:38:11;99092.34;;;42.73;43.22
9905;BME280;4991;43.566;27.820;2023-07-16T10:40:44;99092.19;;;42.98;41.39
9905;BME280;4991;43.566;27.820;2023-07-16T10:43:10;99086.31;;;43.29;41.17
9905;BME280;4991;43.566;27.820;2023-07-16T10:45:36;99092.28;;;43.20;41.83
9905;BME280;4991;43.566;27.820;2023-07-16T10:48:02;99078.75;;;43.26;40.99
9905;BME280;4991;43.566;27.820;2023-07-16T10:50:28;99077.88;;;43.04;40.30
9905;BME280;4991;43.566;27.820;2023-07-16T10:52:55;99079.06;;;43.56;39.98
9905;BME280;4991;43.566;27.820;2023-07-16T10:55:22;99074.28;;;44.25;39.80
9905;BME280;4991;43.566;27.820;2023-07-16T10:57:49;99068.28;;;44.34;37.25
9905;BME280;4991;43.566;27.820;2023-07-16T11:00:16;99076.38;;;44.13;39.20
9905;BME280;4991;43.566;27.820;2023-07-16T11:02:43;99065.47;;;43.34;38.25
9905;BME280;4991;43.566;27.820;2023-07-16T11:05:13;99072.53;;;43.94;38.28
9905;BME280;4991;43.566;27.820;2023-07-16T11:07:46;99065.19;;;43.43;39.13
9905;BME280;4991;43.566;27.820;2023-07-16T11:10:15;99073.28;;;42.53;39.77
9905;BME280;4991;43.566;27.820;2023-07-16T11:12:41;99070.44;;;42.64;40.55
9905;BME280;4991;43.566;27.820;2023-07-16T11:15:09;99060.22;;;42.52;40.07
9905;BME280;4991;43.566;27.820;2023-07-16T11:17:37;99064.31;;;40.44;43.68
9905;BME280;4991;43.566;27.820;2023-07-16T11:20:03;99049.03;;;40.47;44.36
9905;BME280;4991;43.566;27.820;2023-07-16T11:22:30;99059.91;;;41.35;44.54
9905;BME280;4991;43.566;27.820;2023-07-16T11:24:55;99060.44;;;41.64;43.42
9905;BME280;4991;43.566;27.820;2023-07-16T11:27:31;99051.31;;;40.83;45.62
9905;BME280;4991;43.566;27.820;2023-07-16T11:29:58;99045.22;;;41.22;45.92
9905;BME280;4991;43.566;27.820;2023-07-16T11:32:46;99041.53;;;42.57;44.23
9905;BME280;4991;43.566;27.820;2023-07-16T11:35:17;99054.00;;;42.59;45.60
9905;BME280;4991;43.566;27.820;2023-07-16T11:37:45;99054.00;;;43.84;42.24
9905;BME280;4991;43.566;27.820;2023-07-16T11:40:15;99062.06;;;42.07;43.50
9905;BME280;4991;43.566;27.820;2023-07-16T11:42:42;99046.94;;;43.52;42.63
9905;BME280;4991;43.566;27.820;2023-07-16T11:45:23;99055.22;;;43.06;43.26
9905;BME280;4991;43.566;27.820;2023-07-16T11:47:52;99052.38;;;43.11;43.06
9905;BME280;4991;43.566;27.820;2023-07-16T11:50:18;99057.50;;;42.32;44.78
9905;BME280;4991;43.566;27.820;2023-07-16T11:52:55;99059.75;;;43.62;43.46
9905;BME280;4991;43.566;27.820;2023-07-16T11:55:22;99054.75;;;43.90;41.30
9905;BME280;4991;43.566;27.820;2023-07-16T11:57:47;99043.47;;;42.98;41.70
9905;BME280;4991;43.566;27.820;2023-07-16T12:00:13;99048.03;;;43.55;41.31
9905;BME280;4991;43.566;27.820;2023-07-16T12:02:39;99043.94;;;42.75;41.43
9905;BME280;4991;43.566;27.820;2023-07-16T12:05:05;99046.94;;;43.80;40.51
9905;BME280;4991;43.566;27.820;2023-07-16T12:07:37;99041.19;;;43.30;40.53
9905;BME280;4991;43.566;27.820;2023-07-16T12:10:05;99047.47;;;43.39;40.92
9905;BME280;4991;43.566;27.820;2023-07-16T12:12:34;99049.53;;;44.00;40.09
9905;BME280;4991;43.566;27.820;2023-07-16T12:15:04;99039.38;;;43.49;41.12
9905;BME280;4991;43.566;27.820;2023-07-16T12:17:30;99036.19;;;44.24;40.45
9905;BME280;4991;43.566;27.820;2023-07-16T12:19:56;99034.09;;;44.30;39.51
9905;BME280;4991;43.566;27.820;2023-07-16T12:22:22;99047.91;;;44.32;37.43
9905;BME280;4991;43.566;27.820;2023-07-16T12:24:49;99043.22;;;44.18;38.36
9905;BME280;4991;43.566;27.820;2023-07-16T12:27:15;99041.69;;;46.15;36.31
9905;BME280;4991;43.566;27.820;2023-07-16T12:29:44;99045.22;;;46.02;37.63
9905;BME280;4991;43.566;27.820;2023-07-16T12:32:09;99039.63;;;45.56;35.75
9905;BME280;4991;43.566;27.820;2023-07-16T12:34:35;99046.66;;;44.00;36.95
9905;BME280;4991;43.566;27.820;2023-07-16T12:37:01;99042.47;;;44.06;37.36
9905;BME280;4991;43.566;27.820;2023-07-16T12:39:26;99045.88;;;41.99;38.47
9905;BME280;4991;43.566;27.820;2023-07-16T12:41:52;99050.50;;;42.97;37.78
9905;BME280;4991;43.566;27.820;2023-07-16T12:44:18;99041.69;;;44.85;37.15
9905;BME280;4991;43.566;27.820;2023-07-16T12:46:43;99045.03;;;44.89;36.46
9905;BME280;4991;43.566;27.820;2023-07-16T12:49:09;99047.50;;;44.74;38.04
9905;BME280;4991;43.566;27.820;2023-07-16T12:51:35;99029.19;;;45.53;37.29
9905;BME280;4991;43.566;27.820;2023-07-16T12:54:00;99038.16;;;45.73;37.16
9905;BME280;4991;43.566;27.820;2023-07-16T12:56:26;99038.97;;;46.46;36.22
9905;BME280;4991;43.566;27.820;2023-07-16T12:58:52;99036.75;;;45.86;37.34
9905;BME280;4991;43.566;27.820;2023-07-16T13:01:18;99039.91;;;45.17;38.36
9905;BME280;4991;43.566;27.820;2023-07-16T13:03:44;99035.03;;;45.01;37.78
9905;BME280;4991;43.566;27.820;2023-07-16T13:06:09;99037.25;;;45.60;35.87